sensor_id;sensor_type;location;lat;lon;timestamp;P1;durP1;ratioP1;P2;durP2;ratioP2
14903;SDS011;7543;53.148;8.234;2023-04-15T00:01:49;3.60;;;2.50;;
14903;SDS011;7543;53.148;8.234;2023-04-15T00:04:18;4.03;;;2.80;;
14903;SDS011;7543;53.148;8.234;2023-04-15T00:06:50;3.70;;;2.93;;
14903;SDS011;7543;53.148;8.234;2023-04-15T00:09:19;6.83;;;3.13;;
14903;SDS011;7543;53.148;8.234;2023-04-15T00:11:49;4.77;;;3.40;;
14903;SDS011;7543;53.148;8.234;2023-04-15T00:14:17;4.10;;;3.00;;
14903;SDS011;7543;53.148;8.234;2023-04-15T00:16:47;6.60;;;3.03;;
14903;SDS011;7543;53.148;8.234;2023-04-15T00:19:21;5.07;;;3.30;;
14903;SDS011;7543;53.148;8.234;2023-04-15T00:21:49;4.20;;;2.87;;
14903;SDS011;7543;53.148;8.234;2023-04-15T00:24:18;4.43;;;3.20;;
14903;SDS011;7543;53.148;8.234;2023-04-15T00:26:46;4.63;;;3.03;;
14903;SDS011;7543;53.148;8.234;2023-04-15T00:29:14;5.03;;;3.70;;
14903;SDS011;7543;53.148;8.234;2023-04-15T00:31:43;6.23;;;3.60;;
14903;SDS011;7543;53.148;8.234;2023-04-15T00:34:13;4.60;;;3.60;;
14903;SDS011;7543;53.148;8.234;2023-04-15T00:36:43;4.37;;;2.70;;
14903;SDS011;7543;53.148;8.234;2023-04-15T00:39:12;5.07;;;3.43;;
14903;SDS011;7543;53.148;8.234;2023-04-15T00:41:43;7.80;;;3.53;;
14903;SDS011;7543;53.148;8.234;2023-04-15T00:44:12;4.97;;;3.27;;
14903;SDS011;7543;53.148;8.234;2023-04-15T00:46:41;5.33;;;3.37;;
14903;SDS011;7543;53.148;8.234;2023-04-15T00:49:11;6.27;;;3.30;;
14903;SDS011;7543;53.148;8.234;2023-04-15T00:51:41;4.47;;;2.90;;
14903;SDS011;7543;53.148;8.234;2023-04-15T00:54:09;4.50;;;3.20;;
14903;SDS011;7543;53.148;8.234;2023-04-15T00:56:38;5.57;;;3.30;;
14903;SDS011;7543;53.148;8.234;2023-04-15T00:59:06;5.43;;;3.50;;
14903;SDS011;7543;53.148;8.234;2023-04-15T01:01:35;5.10;;;3.60;;
14903;SDS011;7543;53.148;8.234;2023-04-15T01:04:04;6.17;;;3.83;;
14903;SDS011;7543;53.148;8.234;2023-04-15T01:06:32;6.83;;;3.23;;
14903;SDS011;7543;53.148;8.234;2023-04-15T01:09:03;6.23;;;3.13;;
14903;SDS011;7543;53.148;8.234;2023-04-15T01:11:31;6.63;;;4.10;;
14903;SDS011;7543;53.148;8.234;2023-04-15T01:14:01;4.47;;;3.47;;
14903;SDS011;7543;53.148;8.234;2023-04-15T01:16:30;4.80;;;3.43;;
14903;SDS011;7543;53.148;8.234;2023-04-15T01:18:58;5.33;;;3.20;;
14903;SDS011;7543;53.148;8.234;2023-04-15T01:21:27;5.33;;;3.70;;
14903;SDS011;7543;53.148;8.234;2023-04-15T01:23:55;5.10;;;3.57;;
14903;SDS011;7543;53.148;8.234;2023-04-15T01:26:26;5.17;;;3.43;;
14903;SDS011;7543;53.148;8.234;2023-04-15T01:28:54;6.07;;;3.93;;
14903;SDS011;7543;53.148;8.234;2023-04-15T01:31:24;7.03;;;4.13;;
14903;SDS011;7543;53.148;8.234;2023-04-15T01:33:53;6.80;;;4.30;;
14903;SDS011;7543;53.148;8.234;2023-04-15T01:36:21;5.17;;;3.73;;
14903;SDS011;7543;53.148;8.234;2023-04-15T01:38:53;6.17;;;3.97;;
14903;SDS011;7543;53.148;8.234;2023-04-15T01:41:24;5.90;;;3.97;;
14903;SDS011;7543;53.148;8.234;2023-04-15T01:43:54;7.17;;;4.33;;
14903;SDS011;7543;53.148;8.234;2023-04-15T01:46:23;6.23;;;3.97;;
14903;SDS011;7543;53.148;8.234;2023-04-15T01:48:51;7.83;;;4.97;;
14903;SDS011;7543;53.148;8.234;2023-04-15T01:51:19;8.07;;;5.30;;
14903;SDS011;7543;53.148;8.234;2023-04-15T01:53:49;9.60;;;5.23;;
14903;SDS011;7543;53.148;8.234;2023-04-15T01:56:18;9.47;;;5.50;;
14903;SDS011;7543;53.148;8.234;2023-04-15T01:58:47;9.87;;;5.43;;
14903;SDS011;7543;53.148;8.234;2023-04-15T02:01:16;9.87;;;5.73;;
14903;SDS011;7543;53.148;8.234;2023-04-15T02:03:45;9.13;;;5.57;;
14903;SDS011;7543;53.148;8.234;2023-04-15T02:06:15;10.60;;;6.20;;
14903;SDS011;7543;53.148;8.234;2023-04-15T02:08:44;10.07;;;6.33;;
14903;SDS011;7543;53.148;8.234;2023-04-15T02:11:12;11.23;;;6.57;;
14903;SDS011;7543;53.148;8.234;2023-04-15T02:13:41;10.10;;;6.63;;
14903;SDS011;7543;53.148;8.234;2023-04-15T02:16:17;10.63;;;6.60;;
14903;SDS011;7543;53.148;8.234;2023-04-15T02:18:46;10.83;;;6.33;;
14903;SDS011;7543;53.148;8.234;2023-04-15T02:21:14;9.93;;;6.20;;
14903;SDS011;7543;53.148;8.234;2023-04-15T02:23:44;8.90;;;5.80;;
14903;SDS011;7543;53.148;8.234;2023-04-15T02:26:14;12.53;;;6.30;;
14903;SDS011;7543;53.148;8.234;2023-04-15T02:28:42;9.03;;;5.57;;
14903;SDS011;7543;53.148;8.234;2023-04-15T02:31:14;9.50;;;6.33;;
14903;SDS011;7543;53.148;8.234;2023-04-15T02:33:44;10.43;;;6.33;;
14903;SDS011;7543;53.148;8.234;2023-04-15T02:36:12;12.03;;;5.83;;
14903;SDS011;7543;53.148;8.234;2023-04-15T02:38:41;10.57;;;6.40;;
14903;SDS011;7543;53.148;8.234;2023-04-15T02:41:09;9.40;;;6.17;;
14903;SDS011;7543;53.148;8.234;2023-04-15T02:43:38;10.47;;;5.83;;
14903;SDS011;7543;53.148;8.234;2023-04-15T02:46:07;10.23;;;5.90;;
14903;SDS011;7543;53.148;8.234;2023-04-15T02:48:38;8.33;;;5.53;;
14903;SDS011;7543;53.148;8.234;2023-04-15T02:51:12;8.53;;;5.97;;
14903;SDS011;7543;53.148;8.234;2023-04-15T02:53:41;10.40;;;5.43;;
14903;SDS011;7543;53.148;8.234;2023-04-15T02:56:09;9.97;;;6.40;;
14903;SDS011;7543;53.148;8.234;2023-04-15T02:58:38;10.73;;;6.00;;
14903;SDS011;7543;53.148;8.234;2023-04-15T03:01:07;9.83;;;6.20;;
14903;SDS011;7543;53.148;8.234;2023-04-15T03:03:36;8.60;;;5.90;;
14903;SDS011;7543;53.148;8.234;2023-04-15T03:06:04;8.63;;;5.67;;
14903;SDS011;7543;53.148;8.234;2023-04-15T03:08:36;7.47;;;5.17;;
14903;SDS011;7543;53.148;8.234;2023-04-15T03:11:04;8.33;;;5.13;;
14903;SDS011;7543;53.148;8.234;2023-04-15T03:13:33;8.30;;;4.93;;
14903;SDS011;7543;53.148;8.234;2023-04-15T03:16:10;8.83;;;5.37;;
14903;SDS011;7543;53.148;8.234;2023-04-15T03:18:38;8.17;;;5.60;;
14903;SDS011;7543;53.148;8.234;2023-04-15T03:21:07;8.83;;;5.33;;
14903;SDS011;7543;53.148;8.234;2023-04-15T03:23:39;6.50;;;4.47;;
14903;SDS011;7543;53.148;8.234;2023-04-15T03:26:07;7.50;;;4.57;;
14903;SDS011;7543;53.148;8.234;2023-04-15T03:28:36;6.97;;;4.70;;
14903;SDS011;7543;53.148;8.234;2023-04-15T03:31:05;7.03;;;4.67;;
14903;SDS011;7543;53.148;8.234;2023-04-15T03:33:33;7.20;;;4.83;;
14903;SDS011;7543;53.148;8.234;2023-04-15T03:36:02;7.47;;;5.00;;
14903;SDS011;7543;53.148;8.234;2023-04-15T03:38:30;7.27;;;5.07;;
14903;SDS011;7543;53.148;8.234;2023-04-15T03:41:00;6.83;;;4.70;;
14903;SDS011;7543;53.148;8.234;2023-04-15T03:43:28;9.33;;;5.03;;
14903;SDS011;7543;53.148;8.234;2023-04-15T03:45:57;6.73;;;4.70;;
14903;SDS011;7543;53.148;8.234;2023-04-15T03:48:25;8.03;;;4.80;;
14903;SDS011;7543;53.148;8.234;2023-04-15T03:50:53;8.37;;;4.90;;
14903;SDS011;7543;53.148;8.234;2023-04-15T03:53:22;9.90;;;5.23;;
14903;SDS011;7543;53.148;8.234;2023-04-15T03:55:50;7.50;;;4.93;;
14903;SDS011;7543;53.148;8.234;2023-04-15T03:58:20;7.60;;;4.50;;
14903;SDS011;7543;53.148;8.234;2023-04-15T04:00:48;7.93;;;4.53;;
14903;SDS011;7543;53.148;8.234;2023-04-15T04:03:17;7.20;;;4.80;;
14903;SDS011;7543;53.148;8.234;2023-04-15T04:05:45;9.90;;;4.97;;
14903;SDS011;7543;53.148;8.234;2023-04-15T04:08:13;7.27;;;4.50;;
14903;SDS011;7543;53.148;8.234;2023-04-15T04:10:42;8.17;;;4.80;;
14903;SDS011;7543;53.148;8.234;2023-04-15T04:13:10;7.57;;;4.87;;
14903;SDS011;7543;53.148;8.234;2023-04-15T04:15:40;9.53;;;5.40;;
14903;SDS011;7543;53.148;8.234;2023-04-15T04:18:08;7.37;;;4.93;;
14903;SDS011;7543;53.148;8.234;2023-04-15T04:20:37;7.17;;;4.60;;
14903;SDS011;7543;53.148;8.234;2023-04-15T04:23:05;9.73;;;5.30;;
14903;SDS011;7543;53.148;8.234;2023-04-15T04:25:33;6.73;;;4.70;;
14903;SDS011;7543;53.148;8.234;2023-04-15T04:28:02;7.73;;;4.97;;
14903;SDS011;7543;53.148;8.234;2023-04-15T04:30:30;7.57;;;5.10;;
14903;SDS011;7543;53.148;8.234;2023-04-15T04:33:00;9.00;;;5.17;;
14903;SDS011;7543;53.148;8.234;2023-04-15T04:35:28;7.60;;;4.60;;
14903;SDS011;7543;53.148;8.234;2023-04-15T04:37:59;9.07;;;5.20;;
14903;SDS011;7543;53.148;8.234;2023-04-15T04:40:28;8.27;;;5.67;;
14903;SDS011;7543;53.148;8.234;2023-04-15T04:42:56;8.43;;;5.40;;
14903;SDS011;7543;53.148;8.234;2023-04-15T04:45:24;8.27;;;5.20;;
14903;SDS011;7543;53.148;8.234;2023-04-15T04:47:53;9.23;;;5.67;;
14903;SDS011;7543;53.148;8.234;2023-04-15T04:50:22;9.43;;;5.37;;
14903;SDS011;7543;53.148;8.234;2023-04-15T04:52:51;9.60;;;4.80;;
14903;SDS011;7543;53.148;8.234;2023-04-15T04:55:20;10.30;;;5.13;;
14903;SDS011;7543;53.148;8.234;2023-04-15T04:57:48;7.60;;;5.10;;
14903;SDS011;7543;53.148;8.234;2023-04-15T05:00:17;8.67;;;5.10;;
14903;SDS011;7543;53.148;8.234;2023-04-15T05:02:46;7.70;;;4.63;;
14903;SDS011;7543;53.148;8.234;2023-04-15T05:05:14;8.90;;;4.80;;
14903;SDS011;7543;53.148;8.234;2023-04-15T05:07:44;7.63;;;4.80;;
14903;SDS011;7543;53.148;8.234;2023-04-15T05:10:13;8.53;;;4.50;;
14903;SDS011;7543;53.148;8.234;2023-04-15T05:12:43;9.00;;;5.00;;
14903;SDS011;7543;53.148;8.234;2023-04-15T05:15:11;6.90;;;4.70;;
14903;SDS011;7543;53.148;8.234;2023-04-15T05:17:39;8.23;;;4.83;;
14903;SDS011;7543;53.148;8.234;2023-04-15T05:20:08;8.27;;;5.37;;
14903;SDS011;7543;53.148;8.234;2023-04-15T05:22:37;11.80;;;5.77;;
14903;SDS011;7543;53.148;8.234;2023-04-15T05:25:07;9.53;;;5.30;;
14903;SDS011;7543;53.148;8.234;2023-04-15T05:27:36;8.37;;;5.63;;
14903;SDS011;7543;53.148;8.234;2023-04-15T05:30:04;9.13;;;5.53;;
14903;SDS011;7543;53.148;8.234;2023-04-15T05:32:34;8.30;;;5.50;;
14903;SDS011;7543;53.148;8.234;2023-04-15T05:35:03;10.77;;;6.53;;
14903;SDS011;7543;53.148;8.234;2023-04-15T05:37:32;10.63;;;5.77;;
14903;SDS011;7543;53.148;8.234;2023-04-15T05:40:00;7.50;;;5.13;;
14903;SDS011;7543;53.148;8.234;2023-04-15T05:42:31;8.43;;;5.33;;
14903;SDS011;7543;53.148;8.234;2023-04-15T05:44:59;8.67;;;5.27;;
14903;SDS011;7543;53.148;8.234;2023-04-15T05:47:31;8.27;;;5.20;;
14903;SDS011;7543;53.148;8.234;2023-04-15T05:49:59;8.73;;;4.60;;
14903;SDS011;7543;53.148;8.234;2023-04-15T05:52:27;10.50;;;5.40;;
14903;SDS011;7543;53.148;8.234;2023-04-15T05:54:56;9.37;;;5.37;;
14903;SDS011;7543;53.148;8.234;2023-04-15T05:57:24;9.37;;;5.67;;
14903;SDS011;7543;53.148;8.234;2023-04-15T05:59:54;8.60;;;5.23;;
14903;SDS011;7543;53.148;8.234;2023-04-15T06:02:23;8.30;;;5.70;;
14903;SDS011;7543;53.148;8.234;2023-04-15T06:04:52;9.17;;;5.47;;
14903;SDS011;7543;53.148;8.234;2023-04-15T06:07:20;7.27;;;4.83;;
14903;SDS011;7543;53.148;8.234;2023-04-15T06:09:48;9.17;;;5.57;;
14903;SDS011;7543;53.148;8.234;2023-04-15T06:12:17;10.13;;;6.03;;
14903;SDS011;7543;53.148;8.234;2023-04-15T06:14:45;10.63;;;5.80;;
14903;SDS011;7543;53.148;8.234;2023-04-15T06:17:15;9.40;;;5.30;;
14903;SDS011;7543;53.148;8.234;2023-04-15T06:19:44;9.13;;;5.50;;
14903;SDS011;7543;53.148;8.234;2023-04-15T06:22:13;8.97;;;5.13;;
14903;SDS011;7543;53.148;8.234;2023-04-15T06:24:41;9.87;;;5.23;;
14903;SDS011;7543;53.148;8.234;2023-04-15T06:27:10;9.90;;;6.03;;
14903;SDS011;7543;53.148;8.234;2023-04-15T06:29:38;9.77;;;5.83;;
14903;SDS011;7543;53.148;8.234;2023-04-15T06:32:06;9.10;;;5.47;;
14903;SDS011;7543;53.148;8.234;2023-04-15T06:34:36;11.40;;;5.50;;
14903;SDS011;7543;53.148;8.234;2023-04-15T06:37:04;11.17;;;4.93;;
14903;SDS011;7543;53.148;8.234;2023-04-15T06:39:32;8.20;;;5.43;;
14903;SDS011;7543;53.148;8.234;2023-04-15T06:42:01;7.57;;;5.20;;
14903;SDS011;7543;53.148;8.234;2023-04-15T06:44:30;7.60;;;5.20;;
14903;SDS011;7543;53.148;8.234;2023-04-15T06:46:58;9.00;;;5.10;;
14903;SDS011;7543;53.148;8.234;2023-04-15T06:49:27;8.87;;;5.17;;
14903;SDS011;7543;53.148;8.234;2023-04-15T06:51:56;6.20;;;4.60;;
14903;SDS011;7543;53.148;8.234;2023-04-15T06:54:26;10.27;;;5.00;;
14903;SDS011;7543;53.148;8.234;2023-04-15T06:56:54;9.23;;;4.47;;
14903;SDS011;7543;53.148;8.234;2023-04-15T06:59:22;6.13;;;4.10;;
14903;SDS011;7543;53.148;8.234;2023-04-15T07:01:51;6.83;;;3.53;;
14903;SDS011;7543;53.148;8.234;2023-04-15T07:04:19;5.77;;;4.00;;
14903;SDS011;7543;53.148;8.234;2023-04-15T07:06:47;5.83;;;3.73;;
14903;SDS011;7543;53.148;8.234;2023-04-15T07:09:17;5.43;;;3.93;;
14903;SDS011;7543;53.148;8.234;2023-04-15T07:11:46;7.30;;;3.80;;
14903;SDS011;7543;53.148;8.234;2023-04-15T07:14:15;4.80;;;3.50;;
14903;SDS011;7543;53.148;8.234;2023-04-15T07:16:43;5.57;;;3.97;;
14903;SDS011;7543;53.148;8.234;2023-04-15T07:19:12;5.27;;;3.33;;
14903;SDS011;7543;53.148;8.234;2023-04-15T07:21:40;5.30;;;3.20;;
14903;SDS011;7543;53.148;8.234;2023-04-15T07:24:09;4.53;;;3.47;;
14903;SDS011;7543;53.148;8.234;2023-04-15T07:26:38;5.43;;;2.87;;
14903;SDS011;7543;53.148;8.234;2023-04-15T07:29:07;5.40;;;2.90;;
14903;SDS011;7543;53.148;8.234;2023-04-15T07:31:38;5.00;;;3.10;;
14903;SDS011;7543;53.148;8.234;2023-04-15T07:34:07;5.17;;;3.13;;
14903;SDS011;7543;53.148;8.234;2023-04-15T07:36:35;5.73;;;3.50;;
14903;SDS011;7543;53.148;8.234;2023-04-15T07:39:04;5.23;;;3.20;;
14903;SDS011;7543;53.148;8.234;2023-04-15T07:41:32;7.40;;;3.00;;
14903;SDS011;7543;53.148;8.234;2023-04-15T07:44:02;4.03;;;3.07;;
14903;SDS011;7543;53.148;8.234;2023-04-15T07:46:31;5.60;;;2.80;;
14903;SDS011;7543;53.148;8.234;2023-04-15T07:48:59;3.50;;;2.33;;
14903;SDS011;7543;53.148;8.234;2023-04-15T07:51:27;5.07;;;2.83;;
14903;SDS011;7543;53.148;8.234;2023-04-15T07:53:56;5.17;;;2.57;;
14903;SDS011;7543;53.148;8.234;2023-04-15T07:56:25;4.63;;;2.80;;
14903;SDS011;7543;53.148;8.234;2023-04-15T07:58:54;4.80;;;2.60;;
14903;SDS011;7543;53.148;8.234;2023-04-15T08:01:23;4.70;;;2.37;;
14903;SDS011;7543;53.148;8.234;2023-04-15T08:03:52;4.63;;;2.70;;
14903;SDS011;7543;53.148;8.234;2023-04-15T08:06:20;3.33;;;2.13;;
14903;SDS011;7543;53.148;8.234;2023-04-15T08:08:49;6.60;;;2.57;;
14903;SDS011;7543;53.148;8.234;2023-04-15T08:11:18;4.87;;;2.57;;
14903;SDS011;7543;53.148;8.234;2023-04-15T08:13:46;5.67;;;2.43;;
14903;SDS011;7543;53.148;8.234;2023-04-15T08:16:16;3.27;;;2.27;;
14903;SDS011;7543;53.148;8.234;2023-04-15T08:18:47;3.20;;;2.40;;
14903;SDS011;7543;53.148;8.234;2023-04-15T08:21:17;4.23;;;2.20;;
14903;SDS011;7543;53.148;8.234;2023-04-15T08:23:46;3.47;;;2.37;;
14903;SDS011;7543;53.148;8.234;2023-04-15T08:26:15;4.50;;;2.63;;
14903;SDS011;7543;53.148;8.234;2023-04-15T08:28:44;4.13;;;1.97;;
14903;SDS011;7543;53.148;8.234;2023-04-15T08:31:13;3.60;;;2.03;;
14903;SDS011;7543;53.148;8.234;2023-04-15T08:33:42;5.77;;;2.20;;
14903;SDS011;7543;53.148;8.234;2023-04-15T08:36:11;2.40;;;1.90;;
14903;SDS011;7543;53.148;8.234;2023-04-15T08:38:40;2.87;;;2.00;;
14903;SDS011;7543;53.148;8.234;2023-04-15T08:41:11;4.17;;;2.13;;
14903;SDS011;7543;53.148;8.234;2023-04-15T08:43:45;3.40;;;1.90;;
14903;SDS011;7543;53.148;8.234;2023-04-15T08:46:16;3.00;;;1.50;;
14903;SDS011;7543;53.148;8.234;2023-04-15T08:48:44;4.47;;;2.10;;
14903;SDS011;7543;53.148;8.234;2023-04-15T08:51:15;3.07;;;1.90;;
14903;SDS011;7543;53.148;8.234;2023-04-15T08:53:43;3.30;;;1.93;;
14903;SDS011;7543;53.148;8.234;2023-04-15T08:56:23;5.87;;;2.33;;
14903;SDS011;7543;53.148;8.234;2023-04-15T08:58:52;6.10;;;3.77;;
14903;SDS011;7543;53.148;8.234;2023-04-15T09:01:21;5.30;;;2.10;;
14903;SDS011;7543;53.148;8.234;2023-04-15T09:03:49;3.90;;;1.77;;
14903;SDS011;7543;53.148;8.234;2023-04-15T09:06:20;1.87;;;1.50;;
14903;SDS011;7543;53.148;8.234;2023-04-15T09:08:49;4.10;;;1.83;;
14903;SDS011;7543;53.148;8.234;2023-04-15T09:11:18;2.40;;;1.67;;
14903;SDS011;7543;53.148;8.234;2023-04-15T09:13:48;3.27;;;1.70;;
14903;SDS011;7543;53.148;8.234;2023-04-15T09:16:17;4.07;;;1.70;;
14903;SDS011;7543;53.148;8.234;2023-04-15T09:18:46;2.33;;;1.70;;
14903;SDS011;7543;53.148;8.234;2023-04-15T09:21:15;3.20;;;1.97;;
14903;SDS011;7543;53.148;8.234;2023-04-15T09:23:54;4.93;;;1.77;;
14903;SDS011;7543;53.148;8.234;2023-04-15T09:26:31;3.57;;;2.00;;
14903;SDS011;7543;53.148;8.234;2023-04-15T09:29:04;3.40;;;1.90;;
14903;SDS011;7543;53.148;8.234;2023-04-15T09:31:33;3.10;;;1.80;;
14903;SDS011;7543;53.148;8.234;2023-04-15T09:34:02;2.83;;;1.90;;
14903;SDS011;7543;53.148;8.234;2023-04-15T09:36:35;3.93;;;1.70;;
14903;SDS011;7543;53.148;8.234;2023-04-15T09:39:09;3.43;;;2.00;;
14903;SDS011;7543;53.148;8.234;2023-04-15T09:41:38;4.67;;;1.90;;
14903;SDS011;7543;53.148;8.234;2023-04-15T09:44:07;3.53;;;2.03;;
14903;SDS011;7543;53.148;8.234;2023-04-15T09:46:49;3.97;;;1.90;;
14903;SDS011;7543;53.148;8.234;2023-04-15T09:49:17;4.13;;;1.83;;
14903;SDS011;7543;53.148;8.234;2023-04-15T09:51:46;4.77;;;1.70;;
14903;SDS011;7543;53.148;8.234;2023-04-15T09:54:19;3.10;;;1.93;;
14903;SDS011;7543;53.148;8.234;2023-04-15T09:56:47;4.30;;;1.90;;
14903;SDS011;7543;53.148;8.234;2023-04-15T09:59:16;2.30;;;1.80;;
14903;SDS011;7543;53.148;8.234;2023-04-15T10:01:44;1.83;;;1.30;;
14903;SDS011;7543;53.148;8.234;2023-04-15T10:04:13;2.10;;;1.40;;
14903;SDS011;7543;53.148;8.234;2023-04-15T10:06:42;2.40;;;1.73;;
14903;SDS011;7543;53.148;8.234;2023-04-15T10:09:10;2.37;;;1.40;;
14903;SDS011;7543;53.148;8.234;2023-04-15T10:11:40;2.30;;;1.50;;
14903;SDS011;7543;53.148;8.234;2023-04-15T10:14:10;3.73;;;1.70;;
14903;SDS011;7543;53.148;8.234;2023-04-15T10:16:38;1.57;;;1.17;;
14903;SDS011;7543;53.148;8.234;2023-04-15T10:19:09;2.27;;;1.27;;
14903;SDS011;7543;53.148;8.234;2023-04-15T10:21:38;4.23;;;1.70;;
14903;SDS011;7543;53.148;8.234;2023-04-15T10:24:06;4.50;;;1.60;;
14903;SDS011;7543;53.148;8.234;2023-04-15T10:26:35;2.07;;;1.57;;
14903;SDS011;7543;53.148;8.234;2023-04-15T10:29:05;2.80;;;1.47;;
14903;SDS011;7543;53.148;8.234;2023-04-15T10:31:33;5.00;;;1.67;;
14903;SDS011;7543;53.148;8.234;2023-04-15T10:34:04;1.43;;;1.10;;
14903;SDS011;7543;53.148;8.234;2023-04-15T10:36:33;1.67;;;1.17;;
14903;SDS011;7543;53.148;8.234;2023-04-15T10:39:02;2.80;;;1.50;;
14903;SDS011;7543;53.148;8.234;2023-04-15T10:41:38;3.53;;;1.40;;
14903;SDS011;7543;53.148;8.234;2023-04-15T10:44:08;1.70;;;1.30;;
14903;SDS011;7543;53.148;8.234;2023-04-15T10:46:36;2.80;;;1.00;;
14903;SDS011;7543;53.148;8.234;2023-04-15T10:49:06;1.70;;;1.40;;
14903;SDS011;7543;53.148;8.234;2023-04-15T10:51:37;5.87;;;1.47;;
14903;SDS011;7543;53.148;8.234;2023-04-15T10:54:08;2.77;;;1.63;;
14903;SDS011;7543;53.148;8.234;2023-04-15T10:56:40;2.70;;;1.43;;
14903;SDS011;7543;53.148;8.234;2023-04-15T10:59:10;2.80;;;1.50;;
14903;SDS011;7543;53.148;8.234;2023-04-15T11:01:49;3.23;;;1.70;;
14903;SDS011;7543;53.148;8.234;2023-04-15T11:07:33;2.50;;;1.60;;
14903;SDS011;7543;53.148;8.234;2023-04-15T11:10:03;2.27;;;1.80;;
14903;SDS011;7543;53.148;8.234;2023-04-15T11:12:36;3.07;;;1.87;;
14903;SDS011;7543;53.148;8.234;2023-04-15T11:17:57;2.63;;;1.47;;
14903;SDS011;7543;53.148;8.234;2023-04-15T11:20:27;1.37;;;1.27;;
14903;SDS011;7543;53.148;8.234;2023-04-15T11:22:55;3.10;;;1.60;;
14903;SDS011;7543;53.148;8.234;2023-04-15T11:25:24;2.50;;;1.70;;
14903;SDS011;7543;53.148;8.234;2023-04-15T11:27:54;4.47;;;2.00;;
14903;SDS011;7543;53.148;8.234;2023-04-15T11:30:24;2.80;;;1.63;;
14903;SDS011;7543;53.148;8.234;2023-04-15T11:32:56;3.27;;;1.60;;
14903;SDS011;7543;53.148;8.234;2023-04-15T11:35:25;2.00;;;1.40;;
14903;SDS011;7543;53.148;8.234;2023-04-15T11:37:54;1.90;;;1.20;;
14903;SDS011;7543;53.148;8.234;2023-04-15T11:40:22;3.33;;;1.60;;
14903;SDS011;7543;53.148;8.234;2023-04-15T11:43:02;2.60;;;1.77;;
14903;SDS011;7543;53.148;8.234;2023-04-15T11:45:31;3.00;;;1.60;;
14903;SDS011;7543;53.148;8.234;2023-04-15T11:48:08;2.03;;;1.60;;
14903;SDS011;7543;53.148;8.234;2023-04-15T11:50:37;3.50;;;1.60;;
14903;SDS011;7543;53.148;8.234;2023-04-15T11:53:07;4.00;;;1.57;;
14903;SDS011;7543;53.148;8.234;2023-04-15T11:55:40;2.17;;;1.83;;
14903;SDS011;7543;53.148;8.234;2023-04-15T11:58:10;3.27;;;2.00;;
14903;SDS011;7543;53.148;8.234;2023-04-15T12:00:40;2.50;;;1.90;;
14903;SDS011;7543;53.148;8.234;2023-04-15T12:03:18;5.20;;;2.70;;
14903;SDS011;7543;53.148;8.234;2023-04-15T12:06:05;5.43;;;2.07;;
14903;SDS011;7543;53.148;8.234;2023-04-15T12:11:35;5.03;;;2.30;;
14903;SDS011;7543;53.148;8.234;2023-04-15T12:14:06;4.47;;;2.50;;
14903;SDS011;7543;53.148;8.234;2023-04-15T12:16:37;4.17;;;2.53;;
14903;SDS011;7543;53.148;8.234;2023-04-15T12:19:09;5.50;;;2.40;;
14903;SDS011;7543;53.148;8.234;2023-04-15T12:21:39;4.30;;;2.53;;
14903;SDS011;7543;53.148;8.234;2023-04-15T12:24:11;3.43;;;2.27;;
14903;SDS011;7543;53.148;8.234;2023-04-15T12:26:43;5.30;;;2.70;;
14903;SDS011;7543;53.148;8.234;2023-04-15T12:29:14;4.70;;;3.00;;
14903;SDS011;7543;53.148;8.234;2023-04-15T12:31:47;5.40;;;2.67;;
14903;SDS011;7543;53.148;8.234;2023-04-15T12:34:24;7.33;;;3.10;;
14903;SDS011;7543;53.148;8.234;2023-04-15T12:36:55;5.60;;;2.97;;
14903;SDS011;7543;53.148;8.234;2023-04-15T12:39:24;6.93;;;3.83;;
14903;SDS011;7543;53.148;8.234;2023-04-15T12:41:54;9.67;;;3.50;;
14903;SDS011;7543;53.148;8.234;2023-04-15T12:44:22;6.93;;;3.70;;
14903;SDS011;7543;53.148;8.234;2023-04-15T12:46:51;8.43;;;4.17;;
14903;SDS011;7543;53.148;8.234;2023-04-15T12:49:21;7.97;;;4.00;;
14903;SDS011;7543;53.148;8.234;2023-04-15T12:51:51;8.80;;;4.27;;
14903;SDS011;7543;53.148;8.234;2023-04-15T12:54:20;8.60;;;4.60;;
14903;SDS011;7543;53.148;8.234;2023-04-15T12:56:49;13.13;;;5.03;;
14903;SDS011;7543;53.148;8.234;2023-04-15T12:59:18;10.30;;;5.10;;
14903;SDS011;7543;53.148;8.234;2023-04-15T13:01:47;15.57;;;5.73;;
14903;SDS011;7543;53.148;8.234;2023-04-15T13:04:15;11.80;;;5.00;;
14903;SDS011;7543;53.148;8.234;2023-04-15T13:06:45;12.67;;;5.47;;
14903;SDS011;7543;53.148;8.234;2023-04-15T13:09:13;8.27;;;4.67;;
14903;SDS011;7543;53.148;8.234;2023-04-15T13:11:42;12.40;;;5.80;;
14903;SDS011;7543;53.148;8.234;2023-04-15T13:14:10;11.87;;;6.00;;
14903;SDS011;7543;53.148;8.234;2023-04-15T13:16:39;11.17;;;5.60;;
14903;SDS011;7543;53.148;8.234;2023-04-15T13:19:08;14.30;;;6.47;;
14903;SDS011;7543;53.148;8.234;2023-04-15T13:21:36;15.07;;;6.10;;
14903;SDS011;7543;53.148;8.234;2023-04-15T13:24:06;12.33;;;6.20;;
14903;SDS011;7543;53.148;8.234;2023-04-15T13:26:36;14.27;;;6.93;;
14903;SDS011;7543;53.148;8.234;2023-04-15T13:29:04;13.60;;;6.67;;
14903;SDS011;7543;53.148;8.234;2023-04-15T13:31:33;13.23;;;6.27;;
14903;SDS011;7543;53.148;8.234;2023-04-15T13:34:02;12.63;;;6.20;;
14903;SDS011;7543;53.148;8.234;2023-04-15T13:36:30;15.70;;;7.60;;
14903;SDS011;7543;53.148;8.234;2023-04-15T13:38:59;18.07;;;7.80;;
14903;SDS011;7543;53.148;8.234;2023-04-15T13:41:29;16.83;;;7.93;;
14903;SDS011;7543;53.148;8.234;2023-04-15T13:43:57;15.83;;;8.10;;
14903;SDS011;7543;53.148;8.234;2023-04-15T13:46:26;20.30;;;7.43;;
14903;SDS011;7543;53.148;8.234;2023-04-15T13:48:54;18.83;;;8.07;;
14903;SDS011;7543;53.148;8.234;2023-04-15T13:51:23;21.53;;;8.37;;
14903;SDS011;7543;53.148;8.234;2023-04-15T13:53:52;15.60;;;7.83;;
14903;SDS011;7543;53.148;8.234;2023-04-15T13:56:21;18.50;;;8.30;;
14903;SDS011;7543;53.148;8.234;2023-04-15T13:58:50;18.63;;;8.87;;
14903;SDS011;7543;53.148;8.234;2023-04-15T14:01:20;17.63;;;8.40;;
14903;SDS011;7543;53.148;8.234;2023-04-15T14:03:48;18.27;;;8.60;;
14903;SDS011;7543;53.148;8.234;2023-04-15T14:06:17;19.00;;;9.00;;
14903;SDS011;7543;53.148;8.234;2023-04-15T14:08:45;23.87;;;9.50;;
14903;SDS011;7543;53.148;8.234;2023-04-15T14:11:14;20.60;;;9.97;;
14903;SDS011;7543;53.148;8.234;2023-04-15T14:13:43;20.67;;;9.03;;
14903;SDS011;7543;53.148;8.234;2023-04-15T14:16:13;24.70;;;9.63;;
14903;SDS011;7543;53.148;8.234;2023-04-15T14:18:43;25.70;;;10.17;;
14903;SDS011;7543;53.148;8.234;2023-04-15T14:21:11;23.40;;;9.73;;
14903;SDS011;7543;53.148;8.234;2023-04-15T14:23:39;24.10;;;10.97;;
14903;SDS011;7543;53.148;8.234;2023-04-15T14:26:08;23.87;;;10.57;;
14903;SDS011;7543;53.148;8.234;2023-04-15T14:28:37;25.57;;;11.50;;
14903;SDS011;7543;53.148;8.234;2023-04-15T14:31:05;22.43;;;11.93;;
14903;SDS011;7543;53.148;8.234;2023-04-15T14:33:35;25.17;;;12.33;;
14903;SDS011;7543;53.148;8.234;2023-04-15T14:36:03;27.77;;;13.23;;
14903;SDS011;7543;53.148;8.234;2023-04-15T14:38:32;28.17;;;13.00;;
14903;SDS011;7543;53.148;8.234;2023-04-15T14:41:04;25.50;;;12.53;;
14903;SDS011;7543;53.148;8.234;2023-04-15T14:43:33;28.07;;;14.10;;
14903;SDS011;7543;53.148;8.234;2023-04-15T14:46:01;26.50;;;13.67;;
14903;SDS011;7543;53.148;8.234;2023-04-15T14:48:29;24.80;;;12.80;;
14903;SDS011;7543;53.148;8.234;2023-04-15T14:50:59;27.93;;;13.23;;
14903;SDS011;7543;53.148;8.234;2023-04-15T14:53:28;24.03;;;13.00;;
14903;SDS011;7543;53.148;8.234;2023-04-15T14:55:56;28.00;;;13.73;;
14903;SDS011;7543;53.148;8.234;2023-04-15T14:58:24;26.70;;;13.87;;
14903;SDS011;7543;53.148;8.234;2023-04-15T15:00:53;24.30;;;13.33;;
14903;SDS011;7543;53.148;8.234;2023-04-15T15:03:22;38.20;;;16.20;;
14903;SDS011;7543;53.148;8.234;2023-04-15T15:05:50;29.17;;;14.37;;
14903;SDS011;7543;53.148;8.234;2023-04-15T15:08:20;26.23;;;13.97;;
14903;SDS011;7543;53.148;8.234;2023-04-15T15:10:48;26.53;;;14.20;;
14903;SDS011;7543;53.148;8.234;2023-04-15T15:13:17;33.03;;;14.37;;
14903;SDS011;7543;53.148;8.234;2023-04-15T15:15:46;36.83;;;16.80;;
14903;SDS011;7543;53.148;8.234;2023-04-15T15:18:15;25.73;;;14.57;;
14903;SDS011;7543;53.148;8.234;2023-04-15T15:20:44;28.97;;;14.23;;